KLSE

La Crosse Regional Airport

La Crosse, Wisconsin, USA
KLSE 192320Z 2000/2024 10006KT P6SM -SHRA OVC012 FM200500 12005KT 2SM +TSRA OVC008CB FM201200 12005KT 5SM -SHRA BR OVC012 FM201500 13007KT P6SM OVC020 FM202000 15012KT P6SM BKN040
Issued Valid From Valid To
Sep-19 @ 23:20 UTC
(2 hours ago)
Sep-20 @ 00:00 UTC
(an hour ago)
Sep-21 @ 00:00 UTC
(in 23 hours)
Sep-20 @ 00:00 to Sep-20 @ 05:00
KLSE 192320Z 2000/2024 10006KT P6SM -SHRA OVC012
Wind Visibility Clouds Conditions
100° at 6 knots Greater than 6 miles
  • Overcast at 1,200' AGL
  • Light Rain
From Sep-20 @ 05:00 to Sep-20 @ 12:00
FM200500 12005KT 2SM +TSRA OVC008CB
Wind Visibility Clouds Conditions
120° at 5 knots 2 miles
  • Overcast at 800' AGL
  • Heavy Thunderstorm
  • Heavy Rain
From Sep-20 @ 12:00 to Sep-20 @ 15:00
FM201200 12005KT 5SM -SHRA BR OVC012
Wind Visibility Clouds Conditions
120° at 5 knots 5 miles
  • Overcast at 1,200' AGL
  • Light Rain
  • Mist
From Sep-20 @ 15:00 to Sep-20 @ 20:00
FM201500 13007KT P6SM OVC020
Wind Visibility Clouds
130° at 7 knots Greater than 6 miles
  • Overcast at 2,000' AGL
From Sep-20 @ 20:00 to Sep-21 @ 00:00
FM202000 15012KT P6SM BKN040
Wind Visibility Clouds
150° at 12 knots Greater than 6 miles
  • Broken at 4,000' AGL
KLSE 192320Z 2000/2024 10006KT P6SM -SHRA OVC012 FM200500 12005KT 2SM +TSRA OVC008CB FM201200 12005KT 5SM -SHRA BR OVC012 FM201500 13007KT P6SM OVC020 FM202000 15012KT P6SM BKN040
Issued Sep-19 @ 23:20 UTC
(2 hours ago)
Valid From Sep-20 @ 00:00 UTC
(an hour ago)
Valid To Sep-21 @ 00:00 UTC
(in 23 hours)
Sep-20 @ 00:00 - Sep-20 @ 05:00
Wind Visibility
100° at 6 knots Greater than 6 miles
Clouds
  • Overcast at 1,200' AGL
Conditions
  • Light Rain
From Sep-20 @ 05:00 - Sep-20 @ 12:00
Wind Visibility
120° at 5 knots 2 miles
Clouds
  • Overcast at 800' AGL
Conditions
  • Heavy Thunderstorm
  • Heavy Rain
From Sep-20 @ 12:00 - Sep-20 @ 15:00
Wind Visibility
120° at 5 knots 5 miles
Clouds
  • Overcast at 1,200' AGL
Conditions
  • Light Rain
  • Mist
From Sep-20 @ 15:00 - Sep-20 @ 20:00
Wind Visibility
130° at 7 knots Greater than 6 miles
Clouds
  • Overcast at 2,000' AGL
From Sep-20 @ 20:00 - Sep-21 @ 00:00
Wind Visibility
150° at 12 knots Greater than 6 miles
Clouds
  • Broken at 4,000' AGL